sensor_id;sensor_type;location;lat;lon;timestamp;temperature;humidity
18103;DHT22;9178;51.120;6.192;2024-02-23T00:01:30;5.60;99.90
18103;DHT22;9178;51.120;6.192;2024-02-23T00:03:58;5.50;99.90
18103;DHT22;9178;51.120;6.192;2024-02-23T00:06:25;5.50;99.90
18103;DHT22;9178;51.120;6.192;2024-02-23T00:08:55;5.50;99.90
18103;DHT22;9178;51.120;6.192;2024-02-23T00:11:25;5.50;99.90
18103;DHT22;9178;51.120;6.192;2024-02-23T00:13:55;5.50;99.90
18103;DHT22;9178;51.120;6.192;2024-02-23T00:16:22;5.40;99.90
18103;DHT22;9178;51.120;6.192;2024-02-23T00:18:50;5.40;99.90
18103;DHT22;9178;51.120;6.192;2024-02-23T00:21:17;5.40;99.90
18103;DHT22;9178;51.120;6.192;2024-02-23T00:23:45;5.50;99.90
18103;DHT22;9178;51.120;6.192;2024-02-23T00:26:18;5.50;99.90
18103;DHT22;9178;51.120;6.192;2024-02-23T00:28:48;5.50;99.90
18103;DHT22;9178;51.120;6.192;2024-02-23T00:31:17;5.50;99.90
18103;DHT22;9178;51.120;6.192;2024-02-23T00:33:45;5.50;99.90
18103;DHT22;9178;51.120;6.192;2024-02-23T00:36:12;5.50;99.90
18103;DHT22;9178;51.120;6.192;2024-02-23T00:38:40;5.50;99.90
18103;DHT22;9178;51.120;6.192;2024-02-23T00:41:07;5.50;99.90
18103;DHT22;9178;51.120;6.192;2024-02-23T00:43:41;5.50;99.90
18103;DHT22;9178;51.120;6.192;2024-02-23T00:46:23;5.50;99.90
18103;DHT22;9178;51.120;6.192;2024-02-23T00:48:53;5.60;99.90
18103;DHT22;9178;51.120;6.192;2024-02-23T00:51:28;5.60;99.90
18103;DHT22;9178;51.120;6.192;2024-02-23T00:53:58;5.60;99.90
18103;DHT22;9178;51.120;6.192;2024-02-23T00:56:29;5.70;99.90
18103;DHT22;9178;51.120;6.192;2024-02-23T00:58:56;5.70;99.90
18103;DHT22;9178;51.120;6.192;2024-02-23T01:01:24;5.70;99.90
18103;DHT22;9178;51.120;6.192;2024-02-23T01:03:52;5.70;99.90
18103;DHT22;9178;51.120;6.192;2024-02-23T01:06:25;5.70;99.90
18103;DHT22;9178;51.120;6.192;2024-02-23T01:08:54;5.70;99.90
18103;DHT22;9178;51.120;6.192;2024-02-23T01:11:21;5.70;99.90
18103;DHT22;9178;51.120;6.192;2024-02-23T01:13:48;5.60;99.90
18103;DHT22;9178;51.120;6.192;2024-02-23T01:16:15;5.60;99.90
18103;DHT22;9178;51.120;6.192;2024-02-23T01:18:44;5.50;99.90
18103;DHT22;9178;51.120;6.192;2024-02-23T01:21:14;5.50;99.90
18103;DHT22;9178;51.120;6.192;2024-02-23T01:23:48;5.40;99.90
18103;DHT22;9178;51.120;6.192;2024-02-23T01:26:16;5.40;99.90
18103;DHT22;9178;51.120;6.192;2024-02-23T01:28:46;5.40;99.90
18103;DHT22;9178;51.120;6.192;2024-02-23T01:31:16;5.40;99.90
18103;DHT22;9178;51.120;6.192;2024-02-23T01:33:44;5.40;99.90
18103;DHT22;9178;51.120;6.192;2024-02-23T01:36:11;5.40;99.90
18103;DHT22;9178;51.120;6.192;2024-02-23T01:38:39;5.40;99.90
18103;DHT22;9178;51.120;6.192;2024-02-23T01:41:11;5.40;99.90
18103;DHT22;9178;51.120;6.192;2024-02-23T01:43:38;5.40;99.90
18103;DHT22;9178;51.120;6.192;2024-02-23T01:59:46;5.40;99.90
18103;DHT22;9178;51.120;6.192;2024-02-23T02:02:13;5.30;99.90
18103;DHT22;9178;51.120;6.192;2024-02-23T02:04:40;5.30;99.90
18103;DHT22;9178;51.120;6.192;2024-02-23T02:07:11;5.20;99.90
18103;DHT22;9178;51.120;6.192;2024-02-23T02:09:39;5.20;99.90
18103;DHT22;9178;51.120;6.192;2024-02-23T02:12:08;5.20;99.90
18103;DHT22;9178;51.120;6.192;2024-02-23T02:14:35;5.20;99.90
18103;DHT22;9178;51.120;6.192;2024-02-23T02:17:07;5.10;99.90
18103;DHT22;9178;51.120;6.192;2024-02-23T02:19:34;5.20;99.90
18103;DHT22;9178;51.120;6.192;2024-02-23T02:22:04;5.20;99.90
18103;DHT22;9178;51.120;6.192;2024-02-23T02:24:32;5.20;99.90
18103;DHT22;9178;51.120;6.192;2024-02-23T02:26:59;5.20;99.90
18103;DHT22;9178;51.120;6.192;2024-02-23T02:29:26;5.20;99.90
18103;DHT22;9178;51.120;6.192;2024-02-23T02:31:53;5.20;99.90
18103;DHT22;9178;51.120;6.192;2024-02-23T02:34:25;5.10;99.90
18103;DHT22;9178;51.120;6.192;2024-02-23T02:36:54;5.10;99.90
18103;DHT22;9178;51.120;6.192;2024-02-23T02:39:21;5.10;99.90
18103;DHT22;9178;51.120;6.192;2024-02-23T02:41:48;5.10;99.90
18103;DHT22;9178;51.120;6.192;2024-02-23T02:44:16;5.20;99.90
18103;DHT22;9178;51.120;6.192;2024-02-23T02:46:43;5.20;99.90
18103;DHT22;9178;51.120;6.192;2024-02-23T02:49:12;5.20;99.90
18103;DHT22;9178;51.120;6.192;2024-02-23T02:51:41;5.20;99.90
18103;DHT22;9178;51.120;6.192;2024-02-23T02:54:08;5.20;99.90
18103;DHT22;9178;51.120;6.192;2024-02-23T02:56:35;5.20;99.90
18103;DHT22;9178;51.120;6.192;2024-02-23T02:59:04;5.20;99.90
18103;DHT22;9178;51.120;6.192;2024-02-23T03:01:31;5.20;99.90
18103;DHT22;9178;51.120;6.192;2024-02-23T03:03:58;5.30;99.90
18103;DHT22;9178;51.120;6.192;2024-02-23T03:06:25;5.30;99.90
18103;DHT22;9178;51.120;6.192;2024-02-23T03:08:54;5.30;99.90
18103;DHT22;9178;51.120;6.192;2024-02-23T03:11:21;5.30;99.90
18103;DHT22;9178;51.120;6.192;2024-02-23T03:13:48;5.30;99.90
18103;DHT22;9178;51.120;6.192;2024-02-23T03:16:20;5.30;99.90
18103;DHT22;9178;51.120;6.192;2024-02-23T03:18:52;5.30;99.90
18103;DHT22;9178;51.120;6.192;2024-02-23T03:21:20;5.20;99.90
18103;DHT22;9178;51.120;6.192;2024-02-23T03:23:47;5.20;99.90
18103;DHT22;9178;51.120;6.192;2024-02-23T03:26:15;5.10;99.90
18103;DHT22;9178;51.120;6.192;2024-02-23T03:28:42;5.10;99.90
18103;DHT22;9178;51.120;6.192;2024-02-23T03:31:09;5.20;99.90
18103;DHT22;9178;51.120;6.192;2024-02-23T03:33:38;5.30;99.90
18103;DHT22;9178;51.120;6.192;2024-02-23T03:36:05;5.30;99.90
18103;DHT22;9178;51.120;6.192;2024-02-23T03:38:32;5.20;99.90
18103;DHT22;9178;51.120;6.192;2024-02-23T03:41:02;5.20;99.90
18103;DHT22;9178;51.120;6.192;2024-02-23T03:43:31;5.20;99.90
18103;DHT22;9178;51.120;6.192;2024-02-23T03:45:58;5.30;99.90
18103;DHT22;9178;51.120;6.192;2024-02-23T03:48:25;5.30;99.90
18103;DHT22;9178;51.120;6.192;2024-02-23T03:50:52;5.20;99.90
18103;DHT22;9178;51.120;6.192;2024-02-23T03:53:20;5.20;99.90
18103;DHT22;9178;51.120;6.192;2024-02-23T03:55:50;5.20;99.90
18103;DHT22;9178;51.120;6.192;2024-02-23T03:58:17;5.10;99.90
18103;DHT22;9178;51.120;6.192;2024-02-23T04:00:46;5.20;99.90
18103;DHT22;9178;51.120;6.192;2024-02-23T04:03:19;5.10;99.90
18103;DHT22;9178;51.120;6.192;2024-02-23T04:05:46;5.20;99.90
18103;DHT22;9178;51.120;6.192;2024-02-23T04:08:13;5.20;99.90
18103;DHT22;9178;51.120;6.192;2024-02-23T04:10:41;5.30;99.90
18103;DHT22;9178;51.120;6.192;2024-02-23T04:13:08;5.30;99.90
18103;DHT22;9178;51.120;6.192;2024-02-23T04:15:36;5.30;99.90
18103;DHT22;9178;51.120;6.192;2024-02-23T04:18:05;5.30;99.90
18103;DHT22;9178;51.120;6.192;2024-02-23T04:20:32;5.40;99.90
18103;DHT22;9178;51.120;6.192;2024-02-23T04:22:59;5.40;99.90
18103;DHT22;9178;51.120;6.192;2024-02-23T04:25:27;5.40;99.90
18103;DHT22;9178;51.120;6.192;2024-02-23T04:27:54;5.40;99.90
18103;DHT22;9178;51.120;6.192;2024-02-23T04:30:21;5.40;99.90
18103;DHT22;9178;51.120;6.192;2024-02-23T04:32:48;5.50;99.90
18103;DHT22;9178;51.120;6.192;2024-02-23T04:35:17;5.50;99.90
18103;DHT22;9178;51.120;6.192;2024-02-23T04:37:44;5.50;99.90
18103;DHT22;9178;51.120;6.192;2024-02-23T04:40:12;5.50;99.90
18103;DHT22;9178;51.120;6.192;2024-02-23T04:42:39;5.50;99.90
18103;DHT22;9178;51.120;6.192;2024-02-23T04:45:07;5.50;99.90
18103;DHT22;9178;51.120;6.192;2024-02-23T04:47:35;5.50;99.90
18103;DHT22;9178;51.120;6.192;2024-02-23T04:50:02;5.40;99.90
18103;DHT22;9178;51.120;6.192;2024-02-23T04:52:34;5.40;99.90
18103;DHT22;9178;51.120;6.192;2024-02-23T04:55:01;5.30;99.90
18103;DHT22;9178;51.120;6.192;2024-02-23T04:57:28;5.20;99.90
18103;DHT22;9178;51.120;6.192;2024-02-23T04:59:55;5.20;99.90
18103;DHT22;9178;51.120;6.192;2024-02-23T05:02:22;5.20;99.90
18103;DHT22;9178;51.120;6.192;2024-02-23T05:04:49;5.20;99.90
18103;DHT22;9178;51.120;6.192;2024-02-23T05:07:16;5.20;99.90
18103;DHT22;9178;51.120;6.192;2024-02-23T05:09:44;5.30;99.90
18103;DHT22;9178;51.120;6.192;2024-02-23T05:12:12;5.30;99.90
18103;DHT22;9178;51.120;6.192;2024-02-23T05:14:39;5.40;99.90
18103;DHT22;9178;51.120;6.192;2024-02-23T05:17:06;5.40;99.90
18103;DHT22;9178;51.120;6.192;2024-02-23T05:19:33;5.40;99.90
18103;DHT22;9178;51.120;6.192;2024-02-23T05:22:00;5.50;99.90
18103;DHT22;9178;51.120;6.192;2024-02-23T05:24:30;5.50;99.90
18103;DHT22;9178;51.120;6.192;2024-02-23T05:26:59;5.50;99.90
18103;DHT22;9178;51.120;6.192;2024-02-23T05:29:28;5.50;99.90
18103;DHT22;9178;51.120;6.192;2024-02-23T05:31:55;5.50;99.90
18103;DHT22;9178;51.120;6.192;2024-02-23T05:34:22;5.60;99.90
18103;DHT22;9178;51.120;6.192;2024-02-23T05:36:50;5.60;99.90
18103;DHT22;9178;51.120;6.192;2024-02-23T05:39:17;5.60;99.90
18103;DHT22;9178;51.120;6.192;2024-02-23T05:41:44;5.60;99.90
18103;DHT22;9178;51.120;6.192;2024-02-23T05:44:13;5.60;99.90
18103;DHT22;9178;51.120;6.192;2024-02-23T05:46:42;5.70;99.90
18103;DHT22;9178;51.120;6.192;2024-02-23T05:49:09;5.70;99.90
18103;DHT22;9178;51.120;6.192;2024-02-23T05:51:36;5.70;99.90
18103;DHT22;9178;51.120;6.192;2024-02-23T05:54:04;5.70;99.90
18103;DHT22;9178;51.120;6.192;2024-02-23T05:56:31;5.70;99.90
18103;DHT22;9178;51.120;6.192;2024-02-23T05:59:00;5.70;99.90
18103;DHT22;9178;51.120;6.192;2024-02-23T06:01:28;5.70;99.90
18103;DHT22;9178;51.120;6.192;2024-02-23T06:03:56;5.60;99.90
18103;DHT22;9178;51.120;6.192;2024-02-23T06:06:23;5.60;99.90
18103;DHT22;9178;51.120;6.192;2024-02-23T06:08:50;5.60;99.90
18103;DHT22;9178;51.120;6.192;2024-02-23T06:11:17;5.60;99.90
18103;DHT22;9178;51.120;6.192;2024-02-23T06:13:47;5.60;99.90
18103;DHT22;9178;51.120;6.192;2024-02-23T06:16:14;5.50;99.90
18103;DHT22;9178;51.120;6.192;2024-02-23T06:18:43;5.50;99.90
18103;DHT22;9178;51.120;6.192;2024-02-23T06:21:13;5.50;99.90
18103;DHT22;9178;51.120;6.192;2024-02-23T06:23:41;5.40;99.90
18103;DHT22;9178;51.120;6.192;2024-02-23T06:26:12;5.40;99.90
18103;DHT22;9178;51.120;6.192;2024-02-23T06:28:40;5.40;99.90
18103;DHT22;9178;51.120;6.192;2024-02-23T06:31:08;5.50;99.90
18103;DHT22;9178;51.120;6.192;2024-02-23T06:33:36;5.50;99.90
18103;DHT22;9178;51.120;6.192;2024-02-23T06:36:05;5.50;99.90
18103;DHT22;9178;51.120;6.192;2024-02-23T06:38:32;5.50;99.90
18103;DHT22;9178;51.120;6.192;2024-02-23T06:41:13;5.60;99.90
18103;DHT22;9178;51.120;6.192;2024-02-23T06:43:41;5.60;99.90
18103;DHT22;9178;51.120;6.192;2024-02-23T06:46:09;5.60;99.90
18103;DHT22;9178;51.120;6.192;2024-02-23T06:48:36;5.60;99.90
18103;DHT22;9178;51.120;6.192;2024-02-23T06:51:06;5.60;99.90
18103;DHT22;9178;51.120;6.192;2024-02-23T06:53:35;5.70;99.90
18103;DHT22;9178;51.120;6.192;2024-02-23T06:56:02;5.70;99.90
18103;DHT22;9178;51.120;6.192;2024-02-23T06:58:30;5.80;99.90
18103;DHT22;9178;51.120;6.192;2024-02-23T07:00:57;5.80;99.90
18103;DHT22;9178;51.120;6.192;2024-02-23T07:03:24;5.90;99.90
18103;DHT22;9178;51.120;6.192;2024-02-23T07:05:51;5.90;99.90
18103;DHT22;9178;51.120;6.192;2024-02-23T07:08:19;5.90;99.90
18103;DHT22;9178;51.120;6.192;2024-02-23T07:10:46;6.00;99.90
18103;DHT22;9178;51.120;6.192;2024-02-23T07:13:13;6.00;99.90
18103;DHT22;9178;51.120;6.192;2024-02-23T07:15:40;6.00;99.90
18103;DHT22;9178;51.120;6.192;2024-02-23T07:18:07;6.00;99.90
18103;DHT22;9178;51.120;6.192;2024-02-23T07:20:35;6.00;99.90
18103;DHT22;9178;51.120;6.192;2024-02-23T07:23:02;6.00;99.90
18103;DHT22;9178;51.120;6.192;2024-02-23T07:25:31;6.00;99.90
18103;DHT22;9178;51.120;6.192;2024-02-23T07:27:58;5.90;99.90
18103;DHT22;9178;51.120;6.192;2024-02-23T07:30:25;5.90;99.90
18103;DHT22;9178;51.120;6.192;2024-02-23T07:32:52;5.90;99.90
18103;DHT22;9178;51.120;6.192;2024-02-23T07:35:19;5.90;99.90
18103;DHT22;9178;51.120;6.192;2024-02-23T07:37:46;5.90;99.90
18103;DHT22;9178;51.120;6.192;2024-02-23T07:40:14;5.90;99.90
18103;DHT22;9178;51.120;6.192;2024-02-23T07:42:50;6.00;99.90
18103;DHT22;9178;51.120;6.192;2024-02-23T07:45:22;6.50;99.90
18103;DHT22;9178;51.120;6.192;2024-02-23T07:47:49;6.70;99.90
18103;DHT22;9178;51.120;6.192;2024-02-23T07:50:16;7.00;99.90
18103;DHT22;9178;51.120;6.192;2024-02-23T07:52:44;7.40;99.90
18103;DHT22;9178;51.120;6.192;2024-02-23T07:55:13;7.90;99.90
18103;DHT22;9178;51.120;6.192;2024-02-23T07:57:44;8.20;99.90
18103;DHT22;9178;51.120;6.192;2024-02-23T08:00:17;8.30;99.90
18103;DHT22;9178;51.120;6.192;2024-02-23T08:02:46;8.20;99.90
18103;DHT22;9178;51.120;6.192;2024-02-23T08:05:13;8.00;99.90
18103;DHT22;9178;51.120;6.192;2024-02-23T08:07:40;8.50;99.90
18103;DHT22;9178;51.120;6.192;2024-02-23T08:10:08;8.80;99.90
18103;DHT22;9178;51.120;6.192;2024-02-23T08:12:37;8.90;99.90
18103;DHT22;9178;51.120;6.192;2024-02-23T08:15:07;9.10;99.90
18103;DHT22;9178;51.120;6.192;2024-02-23T08:17:36;9.10;99.90
18103;DHT22;9178;51.120;6.192;2024-02-23T08:20:03;9.30;99.90
18103;DHT22;9178;51.120;6.192;2024-02-23T08:22:33;9.60;99.90
18103;DHT22;9178;51.120;6.192;2024-02-23T08:25:00;9.40;99.90
18103;DHT22;9178;51.120;6.192;2024-02-23T08:27:27;9.10;99.90
18103;DHT22;9178;51.120;6.192;2024-02-23T08:29:55;9.10;99.90
18103;DHT22;9178;51.120;6.192;2024-02-23T08:32:23;9.30;99.90
18103;DHT22;9178;51.120;6.192;2024-02-23T08:34:52;9.70;99.90
18103;DHT22;9178;51.120;6.192;2024-02-23T08:37:24;9.20;99.90
18103;DHT22;9178;51.120;6.192;2024-02-23T08:39:52;9.30;99.90
18103;DHT22;9178;51.120;6.192;2024-02-23T08:42:22;9.00;99.90
18103;DHT22;9178;51.120;6.192;2024-02-23T08:44:49;8.80;99.90
18103;DHT22;9178;51.120;6.192;2024-02-23T08:47:16;8.80;99.90
18103;DHT22;9178;51.120;6.192;2024-02-23T08:49:45;8.70;99.90
18103;DHT22;9178;51.120;6.192;2024-02-23T08:52:12;8.50;99.90
18103;DHT22;9178;51.120;6.192;2024-02-23T08:54:40;8.60;99.90
18103;DHT22;9178;51.120;6.192;2024-02-23T08:57:07;8.50;99.90
18103;DHT22;9178;51.120;6.192;2024-02-23T08:59:34;8.40;99.90
18103;DHT22;9178;51.120;6.192;2024-02-23T09:02:03;8.20;99.90
18103;DHT22;9178;51.120;6.192;2024-02-23T09:04:32;8.20;99.90
18103;DHT22;9178;51.120;6.192;2024-02-23T09:07:11;8.20;99.90
18103;DHT22;9178;51.120;6.192;2024-02-23T09:09:47;8.20;99.90
18103;DHT22;9178;51.120;6.192;2024-02-23T09:12:14;8.20;99.90
18103;DHT22;9178;51.120;6.192;2024-02-23T09:14:42;8.10;99.90
18103;DHT22;9178;51.120;6.192;2024-02-23T09:17:09;8.00;99.90
18103;DHT22;9178;51.120;6.192;2024-02-23T09:19:37;7.80;99.90
18103;DHT22;9178;51.120;6.192;2024-02-23T09:22:04;7.80;99.90
18103;DHT22;9178;51.120;6.192;2024-02-23T09:24:33;7.80;99.90
18103;DHT22;9178;51.120;6.192;2024-02-23T09:27:03;7.80;99.90
18103;DHT22;9178;51.120;6.192;2024-02-23T09:29:30;7.70;99.90
18103;DHT22;9178;51.120;6.192;2024-02-23T09:31:58;7.70;99.90
18103;DHT22;9178;51.120;6.192;2024-02-23T09:34:35;7.70;99.90
18103;DHT22;9178;51.120;6.192;2024-02-23T09:37:02;7.70;99.90
18103;DHT22;9178;51.120;6.192;2024-02-23T09:39:35;7.70;99.90
18103;DHT22;9178;51.120;6.192;2024-02-23T09:42:03;7.80;99.90
18103;DHT22;9178;51.120;6.192;2024-02-23T09:44:37;7.80;99.90
18103;DHT22;9178;51.120;6.192;2024-02-23T09:47:05;7.80;99.90
18103;DHT22;9178;51.120;6.192;2024-02-23T09:49:42;7.80;99.90
18103;DHT22;9178;51.120;6.192;2024-02-23T09:52:10;7.90;99.90
18103;DHT22;9178;51.120;6.192;2024-02-23T09:54:39;7.90;99.90
18103;DHT22;9178;51.120;6.192;2024-02-23T09:57:10;7.90;99.90
18103;DHT22;9178;51.120;6.192;2024-02-23T09:59:37;7.80;99.90
18103;DHT22;9178;51.120;6.192;2024-02-23T10:02:07;7.80;99.90
18103;DHT22;9178;51.120;6.192;2024-02-23T10:04:36;7.70;99.90
18103;DHT22;9178;51.120;6.192;2024-02-23T10:07:05;7.70;99.90
18103;DHT22;9178;51.120;6.192;2024-02-23T10:09:32;7.70;99.90
18103;DHT22;9178;51.120;6.192;2024-02-23T10:12:05;7.80;99.90
18103;DHT22;9178;51.120;6.192;2024-02-23T10:14:32;7.80;99.90
18103;DHT22;9178;51.120;6.192;2024-02-23T10:16:59;7.90;99.90
18103;DHT22;9178;51.120;6.192;2024-02-23T10:19:28;8.00;99.90
18103;DHT22;9178;51.120;6.192;2024-02-23T10:21:58;8.20;99.90
18103;DHT22;9178;51.120;6.192;2024-02-23T10:24:25;8.20;99.90
18103;DHT22;9178;51.120;6.192;2024-02-23T10:26:52;8.20;99.90
18103;DHT22;9178;51.120;6.192;2024-02-23T10:29:22;8.10;99.90
18103;DHT22;9178;51.120;6.192;2024-02-23T10:31:51;8.00;99.90
18103;DHT22;9178;51.120;6.192;2024-02-23T10:34:19;8.00;99.90
18103;DHT22;9178;51.120;6.192;2024-02-23T10:36:47;8.00;99.90
18103;DHT22;9178;51.120;6.192;2024-02-23T10:39:17;8.00;99.90
18103;DHT22;9178;51.120;6.192;2024-02-23T10:41:47;8.10;99.90
18103;DHT22;9178;51.120;6.192;2024-02-23T10:44:17;8.00;99.90
18103;DHT22;9178;51.120;6.192;2024-02-23T10:46:46;8.00;99.90
18103;DHT22;9178;51.120;6.192;2024-02-23T10:49:15;8.00;99.90
18103;DHT22;9178;51.120;6.192;2024-02-23T10:51:46;8.10;99.90
18103;DHT22;9178;51.120;6.192;2024-02-23T10:54:16;8.10;99.90
18103;DHT22;9178;51.120;6.192;2024-02-23T10:56:47;8.20;99.90
18103;DHT22;9178;51.120;6.192;2024-02-23T10:59:14;8.20;99.90
18103;DHT22;9178;51.120;6.192;2024-02-23T11:01:46;8.20;99.90
18103;DHT22;9178;51.120;6.192;2024-02-23T11:04:15;8.20;99.90
18103;DHT22;9178;51.120;6.192;2024-02-23T11:06:45;8.20;99.90
18103;DHT22;9178;51.120;6.192;2024-02-23T11:09:15;8.30;99.90
18103;DHT22;9178;51.120;6.192;2024-02-23T11:11:52;8.30;99.90
18103;DHT22;9178;51.120;6.192;2024-02-23T11:14:29;8.30;99.90
18103;DHT22;9178;51.120;6.192;2024-02-23T11:16:59;8.20;99.90
18103;DHT22;9178;51.120;6.192;2024-02-23T11:19:33;8.20;99.90
18103;DHT22;9178;51.120;6.192;2024-02-23T11:22:01;8.30;99.90
18103;DHT22;9178;51.120;6.192;2024-02-23T11:24:29;8.30;99.90
18103;DHT22;9178;51.120;6.192;2024-02-23T11:26:57;8.30;99.90
18103;DHT22;9178;51.120;6.192;2024-02-23T11:29:29;8.30;99.90
18103;DHT22;9178;51.120;6.192;2024-02-23T11:32:00;8.30;99.90
18103;DHT22;9178;51.120;6.192;2024-02-23T11:34:30;8.30;99.90
18103;DHT22;9178;51.120;6.192;2024-02-23T11:36:57;8.20;99.90
18103;DHT22;9178;51.120;6.192;2024-02-23T11:39:26;8.20;99.90
18103;DHT22;9178;51.120;6.192;2024-02-23T11:41:57;8.30;99.90
18103;DHT22;9178;51.120;6.192;2024-02-23T11:44:25;8.30;99.90
18103;DHT22;9178;51.120;6.192;2024-02-23T11:46:52;8.30;99.90
18103;DHT22;9178;51.120;6.192;2024-02-23T11:49:20;8.20;99.90
18103;DHT22;9178;51.120;6.192;2024-02-23T11:51:53;8.20;99.90
18103;DHT22;9178;51.120;6.192;2024-02-23T11:54:23;8.20;99.90
18103;DHT22;9178;51.120;6.192;2024-02-23T11:56:53;8.20;99.90
18103;DHT22;9178;51.120;6.192;2024-02-23T11:59:20;8.30;99.90
18103;DHT22;9178;51.120;6.192;2024-02-23T12:01:49;8.30;99.90
18103;DHT22;9178;51.120;6.192;2024-02-23T12:04:16;8.30;99.90
18103;DHT22;9178;51.120;6.192;2024-02-23T12:06:45;8.40;99.90
18103;DHT22;9178;51.120;6.192;2024-02-23T12:09:13;8.30;99.90
18103;DHT22;9178;51.120;6.192;2024-02-23T12:11:40;8.30;99.90
18103;DHT22;9178;51.120;6.192;2024-02-23T12:14:08;8.30;99.90
18103;DHT22;9178;51.120;6.192;2024-02-23T12:16:35;8.30;99.90
18103;DHT22;9178;51.120;6.192;2024-02-23T12:19:02;8.30;99.90
18103;DHT22;9178;51.120;6.192;2024-02-23T12:21:29;8.40;99.90
18103;DHT22;9178;51.120;6.192;2024-02-23T12:23:58;8.50;99.90
18103;DHT22;9178;51.120;6.192;2024-02-23T12:26:27;8.60;99.90
18103;DHT22;9178;51.120;6.192;2024-02-23T12:29:00;8.70;99.90
18103;DHT22;9178;51.120;6.192;2024-02-23T12:31:28;8.80;99.90
18103;DHT22;9178;51.120;6.192;2024-02-23T12:34:00;8.90;99.90
18103;DHT22;9178;51.120;6.192;2024-02-23T12:36:30;9.00;99.90
18103;DHT22;9178;51.120;6.192;2024-02-23T12:39:02;9.00;99.90
18103;DHT22;9178;51.120;6.192;2024-02-23T12:41:29;9.20;99.90
18103;DHT22;9178;51.120;6.192;2024-02-23T12:43:56;9.30;99.90
18103;DHT22;9178;51.120;6.192;2024-02-23T12:46:24;9.40;99.90
18103;DHT22;9178;51.120;6.192;2024-02-23T12:48:51;9.30;99.90
18103;DHT22;9178;51.120;6.192;2024-02-23T12:51:18;9.30;99.90
18103;DHT22;9178;51.120;6.192;2024-02-23T12:53:46;9.40;99.90
18103;DHT22;9178;51.120;6.192;2024-02-23T12:56:14;9.40;99.90
18103;DHT22;9178;51.120;6.192;2024-02-23T12:58:44;9.50;99.90
18103;DHT22;9178;51.120;6.192;2024-02-23T13:01:16;9.60;99.90
18103;DHT22;9178;51.120;6.192;2024-02-23T13:03:43;9.70;99.90
18103;DHT22;9178;51.120;6.192;2024-02-23T13:06:15;9.70;99.90
18103;DHT22;9178;51.120;6.192;2024-02-23T13:08:42;9.70;99.90
18103;DHT22;9178;51.120;6.192;2024-02-23T13:11:14;9.60;99.90
18103;DHT22;9178;51.120;6.192;2024-02-23T13:13:41;9.50;99.90
18103;DHT22;9178;51.120;6.192;2024-02-23T13:16:08;9.60;99.90
18103;DHT22;9178;51.120;6.192;2024-02-23T13:18:35;9.70;99.90
18103;DHT22;9178;51.120;6.192;2024-02-23T13:21:04;9.80;99.90
18103;DHT22;9178;51.120;6.192;2024-02-23T13:23:31;9.80;99.90
18103;DHT22;9178;51.120;6.192;2024-02-23T13:25:58;9.80;99.90
18103;DHT22;9178;51.120;6.192;2024-02-23T13:28:29;9.70;99.90
18103;DHT22;9178;51.120;6.192;2024-02-23T13:30:57;9.70;99.90
18103;DHT22;9178;51.120;6.192;2024-02-23T13:33:24;9.70;99.90
18103;DHT22;9178;51.120;6.192;2024-02-23T13:35:54;9.70;99.90
18103;DHT22;9178;51.120;6.192;2024-02-23T13:38:21;9.80;99.90
18103;DHT22;9178;51.120;6.192;2024-02-23T13:40:50;9.80;99.90
18103;DHT22;9178;51.120;6.192;2024-02-23T13:43:17;9.70;99.90
18103;DHT22;9178;51.120;6.192;2024-02-23T13:45:50;9.70;99.90
18103;DHT22;9178;51.120;6.192;2024-02-23T13:48:18;9.80;99.90
18103;DHT22;9178;51.120;6.192;2024-02-23T13:50:46;10.00;99.90
18103;DHT22;9178;51.120;6.192;2024-02-23T13:53:14;10.20;99.90
18103;DHT22;9178;51.120;6.192;2024-02-23T13:55:41;10.30;99.90
18103;DHT22;9178;51.120;6.192;2024-02-23T13:58:10;10.20;99.90
18103;DHT22;9178;51.120;6.192;2024-02-23T14:00:38;10.20;99.90
18103;DHT22;9178;51.120;6.192;2024-02-23T14:03:06;10.10;99.90
18103;DHT22;9178;51.120;6.192;2024-02-23T14:05:36;9.80;99.90
18103;DHT22;9178;51.120;6.192;2024-02-23T14:08:04;9.60;99.90
18103;DHT22;9178;51.120;6.192;2024-02-23T14:10:31;9.40;99.90
18103;DHT22;9178;51.120;6.192;2024-02-23T14:12:58;9.50;99.90
18103;DHT22;9178;51.120;6.192;2024-02-23T14:15:25;9.40;99.90
18103;DHT22;9178;51.120;6.192;2024-02-23T14:17:53;9.50;99.90
18103;DHT22;9178;51.120;6.192;2024-02-23T14:20:21;9.40;99.90
18103;DHT22;9178;51.120;6.192;2024-02-23T14:22:48;9.50;99.90
18103;DHT22;9178;51.120;6.192;2024-02-23T14:25:18;9.40;99.90
18103;DHT22;9178;51.120;6.192;2024-02-23T14:27:45;9.40;99.90
18103;DHT22;9178;51.120;6.192;2024-02-23T14:30:13;9.60;99.90
18103;DHT22;9178;51.120;6.192;2024-02-23T14:32:40;9.80;99.90
18103;DHT22;9178;51.120;6.192;2024-02-23T14:35:08;9.80;99.90
18103;DHT22;9178;51.120;6.192;2024-02-23T14:37:37;9.70;99.90
18103;DHT22;9178;51.120;6.192;2024-02-23T14:40:05;9.70;99.90
18103;DHT22;9178;51.120;6.192;2024-02-23T14:42:33;9.60;99.90
18103;DHT22;9178;51.120;6.192;2024-02-23T14:45:00;9.60;99.90
18103;DHT22;9178;51.120;6.192;2024-02-23T14:47:28;9.50;99.90
18103;DHT22;9178;51.120;6.192;2024-02-23T14:49:55;9.30;99.90
18103;DHT22;9178;51.120;6.192;2024-02-23T14:52:23;9.20;99.90
18103;DHT22;9178;51.120;6.192;2024-02-23T14:54:51;9.10;99.90
18103;DHT22;9178;51.120;6.192;2024-02-23T14:57:19;9.10;99.90
18103;DHT22;9178;51.120;6.192;2024-02-23T14:59:47;9.10;99.90
18103;DHT22;9178;51.120;6.192;2024-02-23T15:02:19;9.20;99.90
18103;DHT22;9178;51.120;6.192;2024-02-23T15:04:47;9.40;99.90
18103;DHT22;9178;51.120;6.192;2024-02-23T15:07:16;9.50;99.90
18103;DHT22;9178;51.120;6.192;2024-02-23T15:09:43;9.70;99.90
18103;DHT22;9178;51.120;6.192;2024-02-23T15:12:11;9.80;99.90
18103;DHT22;9178;51.120;6.192;2024-02-23T15:14:39;9.60;99.90
18103;DHT22;9178;51.120;6.192;2024-02-23T15:17:09;9.50;99.90
18103;DHT22;9178;51.120;6.192;2024-02-23T15:19:37;9.50;99.90
18103;DHT22;9178;51.120;6.192;2024-02-23T15:22:06;9.60;99.90
18103;DHT22;9178;51.120;6.192;2024-02-23T15:24:34;9.70;99.90
18103;DHT22;9178;51.120;6.192;2024-02-23T15:27:02;9.60;99.90
18103;DHT22;9178;51.120;6.192;2024-02-23T15:29:47;9.60;99.90
18103;DHT22;9178;51.120;6.192;2024-02-23T15:32:14;9.60;99.90
18103;DHT22;9178;51.120;6.192;2024-02-23T15:34:41;9.50;99.90
18103;DHT22;9178;51.120;6.192;2024-02-23T15:37:08;9.50;99.90
18103;DHT22;9178;51.120;6.192;2024-02-23T15:39:36;9.40;99.90
18103;DHT22;9178;51.120;6.192;2024-02-23T15:42:04;9.30;99.90
18103;DHT22;9178;51.120;6.192;2024-02-23T15:44:34;9.30;99.90
18103;DHT22;9178;51.120;6.192;2024-02-23T15:47:07;9.20;99.90
18103;DHT22;9178;51.120;6.192;2024-02-23T15:49:37;9.20;99.90
18103;DHT22;9178;51.120;6.192;2024-02-23T15:52:05;9.20;99.90
18103;DHT22;9178;51.120;6.192;2024-02-23T15:54:32;9.20;99.90
18103;DHT22;9178;51.120;6.192;2024-02-23T15:56:59;9.20;99.90
18103;DHT22;9178;51.120;6.192;2024-02-23T15:59:27;9.10;99.90
18103;DHT22;9178;51.120;6.192;2024-02-23T16:01:59;9.10;99.90
18103;DHT22;9178;51.120;6.192;2024-02-23T16:04:28;9.10;99.90
18103;DHT22;9178;51.120;6.192;2024-02-23T16:06:55;9.00;99.90
18103;DHT22;9178;51.120;6.192;2024-02-23T16:09:22;8.90;99.90
18103;DHT22;9178;51.120;6.192;2024-02-23T16:11:49;9.00;99.90
18103;DHT22;9178;51.120;6.192;2024-02-23T16:14:17;8.90;99.90
18103;DHT22;9178;51.120;6.192;2024-02-23T16:16:46;8.90;99.90
18103;DHT22;9178;51.120;6.192;2024-02-23T16:19:15;8.80;99.90
18103;DHT22;9178;51.120;6.192;2024-02-23T16:21:43;8.80;99.90
18103;DHT22;9178;51.120;6.192;2024-02-23T16:24:11;8.80;99.90